Time;durP1;ratioP1;P1;durP2;ratioP2;P2;SDS_P1;SDS_P2;PMS_P1;PMS_P2;Temp;Humidity;BMP_temperature;BMP_pressure;BME280_temperature;BME280_humidity;BME280_pressure;Samples;Min_cycle;Max_cycle;Signal;HPM_P1;HPM_P2
2024/01/13 00:00:42;;;;;;;;;;;;;;;7.25;83.41;102668.72;7299602;19;20022;-69
2024/01/13 00:03:09;;;;;;;;;;;;;;;7.25;83.50;102664.31;7299641;19;19915;-69
2024/01/13 00:05:36;;;;;;;;;;;;;;;7.25;83.08;102669.56;7307316;19;20576;-68
2024/01/13 00:08:03;;;;;;;;;;;;;;;7.29;83.48;102675.44;7295983;19;20344;-68
2024/01/13 00:10:30;;;;;;;;;;;;;;;7.26;83.19;102670.41;7300102;19;19919;-70
2024/01/13 00:12:57;;;;;;;;;;;;;;;7.22;83.00;102669.72;7294223;19;20676;-69
2024/01/13 00:15:23;;;;;;;;;;;;;;;7.24;83.62;102665.25;7303457;19;19918;-68
2024/01/13 00:17:50;;;;;;;;;;;;;;;7.26;83.98;102673.03;7289333;19;20691;-69
2024/01/13 00:20:24;;;;;;;;;;;;;;;7.26;83.54;102668.59;7293786;19;19923;-69
2024/01/13 00:22:51;;;;;;;;;;;;;;;7.24;82.35;102667.84;7294311;19;20401;-69
2024/01/13 00:25:18;;;;;;;;;;;;;;;7.21;81.69;102669.81;7298929;19;20015;-68
2024/01/13 00:27:45;;;;;;;;;;;;;;;7.16;81.71;102667.44;7279558;19;19919;-68
2024/01/13 00:30:12;;;;;;;;;;;;;;;7.14;81.24;102664.06;7301711;19;20294;-67
2024/01/13 00:32:39;;;;;;;;;;;;;;;7.13;81.83;102654.53;7280581;19;19955;-69
2024/01/13 00:35:06;;;;;;;;;;;;;;;7.13;82.10;102658.91;7299325;19;20264;-69
2024/01/13 00:37:33;;;;;;;;;;;;;;;7.11;81.92;102656.38;7287908;19;19934;-68
2024/01/13 00:39:59;;;;;;;;;;;;;;;7.10;82.08;102651.25;7294109;19;19927;-70
2024/01/13 00:42:26;;;;;;;;;;;;;;;7.08;82.03;102656.53;7288229;19;19963;-68
2024/01/13 00:44:53;;;;;;;;;;;;;;;7.07;82.04;102657.47;7295374;19;19927;-69
2024/01/13 00:47:20;;;;;;;;;;;;;;;7.09;82.62;102655.63;7284699;19;20150;-68
2024/01/13 00:49:47;;;;;;;;;;;;;;;7.10;83.43;102664.31;7281848;19;19938;-69
2024/01/13 00:52:14;;;;;;;;;;;;;;;7.11;82.90;102653.75;7291601;19;22350;-68
2024/01/13 00:54:44;;;;;;;;;;;;;;;7.10;83.12;102652.09;7282055;19;19926;-68
2024/01/13 00:57:11;;;;;;;;;;;;;;;7.10;82.69;102653.84;7287286;19;19919;-69
2024/01/13 00:59:38;;;;;;;;;;;;;;;7.09;82.43;102646.94;7289531;19;19931;-68
2024/01/13 01:02:05;;;;;;;;;;;;;;;7.07;82.47;102646.16;7275200;19;19911;-68
2024/01/13 01:04:32;;;;;;;;;;;;;;;6.97;81.88;102652.81;7284910;19;19918;-68
2024/01/13 01:06:59;;;;;;;;;;;;;;;7.02;82.45;102640.34;7298105;19;19959;-68
2024/01/13 01:09:26;;;;;;;;;;;;;;;7.02;82.39;102643.78;7276774;19;19922;-68
2024/01/13 01:11:53;;;;;;;;;;;;;;;7.04;82.52;102633.25;7290099;19;19923;-68
2024/01/13 01:14:20;;;;;;;;;;;;;;;7.02;81.99;102630.72;7299556;19;20118;-68
2024/01/13 01:16:47;;;;;;;;;;;;;;;7.06;82.42;102624.38;7290871;19;19927;-69
2024/01/13 01:19:13;;;;;;;;;;;;;;;7.09;82.43;102632.06;7288507;19;21870;-68
2024/01/13 01:21:40;;;;;;;;;;;;;;;7.09;82.76;102618.97;7289619;19;20006;-69
2024/01/13 01:24:07;;;;;;;;;;;;;;;7.15;85.23;102616.03;7294517;19;19915;-69
2024/01/13 01:26:34;;;;;;;;;;;;;;;7.13;85.01;102611.78;7281671;19;20148;-67
2024/01/13 01:29:01;;;;;;;;;;;;;;;7.16;84.41;102614.25;7291388;19;19946;-69
2024/01/13 01:31:28;;;;;;;;;;;;;;;7.14;84.49;102614.34;7296331;19;20352;-70
2024/01/13 01:33:55;;;;;;;;;;;;;;;7.16;85.46;102607.22;7296176;19;19967;-68
2024/01/13 01:36:22;;;;;;;;;;;;;;;7.11;84.66;102613.69;7282986;19;19915;-70
2024/01/13 01:38:49;;;;;;;;;;;;;;;7.05;83.05;102608.78;7279717;19;20926;-69
2024/01/13 01:41:16;;;;;;;;;;;;;;;7.05;83.22;102593.06;7279593;19;19955;-68
2024/01/13 01:43:45;;;;;;;;;;;;;;;7.06;84.27;102598.19;7302441;19;20500;-68
2024/01/13 01:46:17;;;;;;;;;;;;;;;7.04;83.31;102594.00;7272654;19;19982;-70
2024/01/13 01:48:45;;;;;;;;;;;;;;;6.98;81.91;102603.03;7285608;19;19922;-69
2024/01/13 01:51:16;;;;;;;;;;;;;;;6.97;81.77;102595.25;7292111;19;20387;-68
2024/01/13 01:53:45;;;;;;;;;;;;;;;6.87;81.44;102585.31;7291615;19;19991;-70
2024/01/13 01:56:14;;;;;;;;;;;;;;;6.87;81.83;102582.69;7283216;19;20252;-69
2024/01/13 01:58:42;;;;;;;;;;;;;;;6.90;82.25;102576.47;7279702;19;20596;-71
2024/01/13 02:01:10;;;;;;;;;;;;;;;6.94;83.05;102575.38;7283019;19;19922;-69
2024/01/13 02:03:38;;;;;;;;;;;;;;;6.92;82.84;102569.34;7290419;19;19932;-69
2024/01/13 02:06:06;;;;;;;;;;;;;;;6.93;83.00;102572.81;7293158;19;19927;-68
2024/01/13 02:08:33;;;;;;;;;;;;;;;6.92;83.42;102550.19;7288134;19;20354;-68
2024/01/13 02:11:07;;;;;;;;;;;;;;;6.95;84.37;102555.28;7271729;19;19915;-68
2024/01/13 02:13:34;;;;;;;;;;;;;;;6.92;83.71;102545.81;7296782;19;20224;-68
2024/01/13 02:16:02;;;;;;;;;;;;;;;6.94;84.53;102546.59;7283354;19;20501;-68
2024/01/13 02:18:29;;;;;;;;;;;;;;;6.92;83.45;102548.44;7271670;19;19959;-68
2024/01/13 02:21:05;;;;;;;;;;;;;;;6.92;83.51;102545.81;7291095;19;19979;-69
2024/01/13 02:23:34;;;;;;;;;;;;;;;6.91;82.88;102538.06;7288599;19;19951;-68
2024/01/13 02:26:01;;;;;;;;;;;;;;;6.92;83.55;102534.50;7296734;19;19915;-68
2024/01/13 02:28:28;;;;;;;;;;;;;;;6.89;83.73;102538.16;7284921;19;21478;-69
2024/01/13 02:31:11;;;;;;;;;;;;;;;6.87;84.35;102535.59;7294314;19;19963;-68
2024/01/13 02:33:37;;;;;;;;;;;;;;;6.82;83.52;102532.41;7296063;19;19957;-69
2024/01/13 02:36:05;;;;;;;;;;;;;;;6.76;83.25;102537.97;7304301;19;20280;-69
2024/01/13 02:38:32;;;;;;;;;;;;;;;6.73;81.84;102524.25;7293757;19;19919;-70
2024/01/13 02:41:04;;;;;;;;;;;;;;;6.69;82.65;102522.72;7305911;19;19934;-68
2024/01/13 02:43:31;;;;;;;;;;;;;;;6.66;83.07;102522.88;7294790;19;19919;-70
2024/01/13 02:45:58;;;;;;;;;;;;;;;6.62;81.63;102522.22;7299441;19;20566;-69
2024/01/13 02:48:26;;;;;;;;;;;;;;;6.58;81.51;102518.09;7291471;19;19911;-69
2024/01/13 02:51:05;;;;;;;;;;;;;;;6.56;81.04;102512.09;7284557;19;19954;-67
2024/01/13 02:53:32;;;;;;;;;;;;;;;6.53;81.35;102504.44;7286310;19;20917;-69
2024/01/13 02:55:59;;;;;;;;;;;;;;;6.51;81.71;102515.88;7291236;19;19919;-68
2024/01/13 02:58:25;;;;;;;;;;;;;;;6.49;82.63;102507.31;7294689;19;19923;-68
2024/01/13 03:01:07;;;;;;;;;;;;;;;6.44;82.47;102504.94;7286372;19;20886;-68
2024/01/13 03:03:34;;;;;;;;;;;;;;;6.45;82.11;102493.53;7282857;19;21195;-69
2024/01/13 03:06:03;;;;;;;;;;;;;;;6.49;82.20;102494.22;7287593;19;19918;-69
2024/01/13 03:08:31;;;;;;;;;;;;;;;6.47;82.05;102498.69;7291156;19;20097;-68
2024/01/13 03:11:07;;;;;;;;;;;;;;;6.46;82.04;102497.84;7283907;19;20349;-67
2024/01/13 03:13:35;;;;;;;;;;;;;;;6.47;82.00;102481.22;7282345;19;20186;-67
2024/01/13 03:16:02;;;;;;;;;;;;;;;6.50;82.86;102486.31;7286008;19;19922;-69
2024/01/13 03:18:29;;;;;;;;;;;;;;;6.49;82.88;102479.38;7283947;19;20488;-69
2024/01/13 03:21:05;;;;;;;;;;;;;;;6.45;82.95;102467.41;7277526;19;20335;-68
2024/01/13 03:23:32;;;;;;;;;;;;;;;6.44;83.97;102458.75;7285213;19;19919;-69
2024/01/13 03:26:00;;;;;;;;;;;;;;;6.43;83.88;102464.03;7291922;19;20798;-68
2024/01/13 03:28:27;;;;;;;;;;;;;;;6.40;83.00;102461.56;7285222;19;19923;-68
2024/01/13 03:31:06;;;;;;;;;;;;;;;6.43;82.79;102457.03;7285634;19;20283;-67
2024/01/13 03:33:34;;;;;;;;;;;;;;;6.43;83.18;102449.19;7289796;19;19923;-68
2024/01/13 03:36:01;;;;;;;;;;;;;;;6.45;82.39;102443.88;7291501;19;19915;-68
2024/01/13 03:38:28;;;;;;;;;;;;;;;6.47;81.94;102438.56;7295354;19;19919;-69
2024/01/13 03:41:07;;;;;;;;;;;;;;;6.45;81.52;102436.88;7283793;19;19927;-68
2024/01/13 03:43:34;;;;;;;;;;;;;;;6.39;81.40;102432.00;7294321;19;20010;-68
2024/01/13 03:46:02;;;;;;;;;;;;;;;6.33;81.63;102423.66;7281238;19;20765;-69
2024/01/13 03:48:29;;;;;;;;;;;;;;;6.33;82.06;102418.44;7292642;19;20034;-69
2024/01/13 03:50:56;;;;;;;;;;;;;;;6.34;83.03;102415.75;7306684;19;19918;-70
2024/01/13 03:53:23;;;;;;;;;;;;;;;6.28;82.57;102410.00;7304817;19;20705;-68
2024/01/13 03:55:50;;;;;;;;;;;;;;;6.16;82.13;102408.06;7284441;19;20390;-67
2024/01/13 03:58:17;;;;;;;;;;;;;;;6.17;83.52;102405.38;7280235;19;19915;-68
2024/01/13 04:00:44;;;;;;;;;;;;;;;6.12;82.91;102396.94;7297454;19;19911;-69
2024/01/13 04:03:12;;;;;;;;;;;;;;;6.10;81.96;102392.72;7288016;19;19922;-68
2024/01/13 04:05:39;;;;;;;;;;;;;;;6.07;81.53;102388.53;7287463;19;20203;-69
2024/01/13 04:08:06;;;;;;;;;;;;;;;6.06;81.82;102386.84;7296780;19;20440;-68
2024/01/13 04:10:33;;;;;;;;;;;;;;;6.09;82.53;102386.69;7297368;19;19940;-69
2024/01/13 04:13:00;;;;;;;;;;;;;;;6.06;82.71;102380.75;7273491;19;20773;-70
2024/01/13 04:15:27;;;;;;;;;;;;;;;6.06;83.26;102389.44;7293014;19;20215;-69
2024/01/13 04:17:54;;;;;;;;;;;;;;;6.07;83.25;102400.75;7285838;19;19992;-68
2024/01/13 04:20:21;;;;;;;;;;;;;;;6.05;82.14;102406.03;7292334;19;19923;-68
2024/01/13 04:22:48;;;;;;;;;;;;;;;6.06;82.21;102405.13;7293774;19;19923;-68
2024/01/13 04:25:15;;;;;;;;;;;;;;;6.04;82.43;102399.16;7278825;19;19927;-68
2024/01/13 04:27:42;;;;;;;;;;;;;;;6.01;81.90;102404.53;7277130;19;21182;-68
2024/01/13 04:30:09;;;;;;;;;;;;;;;6.03;83.05;102399.22;7294568;19;20469;-68
2024/01/13 04:32:38;;;;;;;;;;;;;;;6.07;83.95;102395.50;7278482;19;20330;-68
2024/01/13 04:35:05;;;;;;;;;;;;;;;6.07;83.24;102403.34;7274751;19;20329;-68
2024/01/13 04:37:32;;;;;;;;;;;;;;;6.07;82.78;102392.91;7274606;19;20011;-69
2024/01/13 04:39:59;;;;;;;;;;;;;;;5.99;82.38;102386.31;7304878;19;20005;-70
2024/01/13 04:42:26;;;;;;;;;;;;;;;5.95;83.03;102378.75;7284505;19;19937;-69
2024/01/13 04:44:52;;;;;;;;;;;;;;;5.99;83.60;102372.44;7286736;19;19933;-68
2024/01/13 04:47:23;;;;;;;;;;;;;;;5.99;83.39;102369.84;7284401;19;19922;-68
2024/01/13 04:49:50;;;;;;;;;;;;;;;5.98;83.48;102363.75;7286205;19;20254;-68
2024/01/13 04:52:17;;;;;;;;;;;;;;;5.99;82.87;102364.63;7296019;19;19946;-69
2024/01/13 04:54:44;;;;;;;;;;;;;;;6.00;82.98;102361.03;7298042;19;19929;-69
2024/01/13 04:57:11;;;;;;;;;;;;;;;5.99;83.05;102354.16;7289220;19;22334;-69
2024/01/13 04:59:38;;;;;;;;;;;;;;;6.00;82.64;102353.22;7296985;19;19919;-68
2024/01/13 05:02:05;;;;;;;;;;;;;;;6.00;83.05;102354.06;7288003;19;19922;-68
2024/01/13 05:04:32;;;;;;;;;;;;;;;6.02;82.86;102351.38;7287228;19;19957;-68
2024/01/13 05:06:59;;;;;;;;;;;;;;;5.99;82.75;102362.00;7293287;19;19919;-70
2024/01/13 05:09:26;;;;;;;;;;;;;;;5.99;83.08;102373.25;7283584;19;19954;-68
2024/01/13 05:11:53;;;;;;;;;;;;;;;5.96;82.71;102380.44;7281359;19;19998;-69
2024/01/13 05:14:20;;;;;;;;;;;;;;;5.93;82.73;102378.84;7286590;19;20597;-68
2024/01/13 05:16:47;;;;;;;;;;;;;;;5.87;82.96;102394.00;7288018;19;19937;-69
2024/01/13 05:19:13;;;;;;;;;;;;;;;5.86;82.82;102395.75;7289058;19;19947;-68
2024/01/13 05:21:40;;;;;;;;;;;;;;;5.84;83.43;102389.75;7284388;19;19915;-68
2024/01/13 05:24:07;;;;;;;;;;;;;;;5.83;83.15;102401.13;7280111;19;20501;-68
2024/01/13 05:26:34;;;;;;;;;;;;;;;5.87;83.77;102394.00;7285293;19;21152;-69
2024/01/13 05:29:01;;;;;;;;;;;;;;;5.85;83.56;102398.44;7289825;19;19927;-68
2024/01/13 05:31:28;;;;;;;;;;;;;;;5.88;83.18;102396.53;7290286;19;19990;-69
2024/01/13 05:33:55;;;;;;;;;;;;;;;5.87;82.84;102394.84;7313689;19;19986;-69
2024/01/13 05:36:22;;;;;;;;;;;;;;;5.84;82.23;102404.59;7279983;19;20904;-69
2024/01/13 05:38:49;;;;;;;;;;;;;;;5.77;82.18;102400.63;7302648;19;19935;-68
2024/01/13 05:41:16;;;;;;;;;;;;;;;5.73;82.18;102391.28;7293720;19;19919;-68
2024/01/13 05:43:44;;;;;;;;;;;;;;;5.68;82.11;102399.34;7301551;19;19934;-68
2024/01/13 05:46:11;;;;;;;;;;;;;;;5.56;81.93;102413.06;7283450;19;22199;-70
2024/01/13 05:48:38;;;;;;;;;;;;;;;5.53;83.01;102414.06;7277815;19;21012;-68
2024/01/13 05:51:07;;;;;;;;;;;;;;;5.54;83.43;102417.50;7306369;19;19925;-68
2024/01/13 05:53:34;;;;;;;;;;;;;;;5.49;82.40;102420.34;7313022;19;19926;-69
2024/01/13 05:56:01;;;;;;;;;;;;;;;5.45;82.04;102418.84;7319985;19;19990;-68
2024/01/13 05:58:28;;;;;;;;;;;;;;;5.42;82.07;102405.09;7318103;19;19933;-69
2024/01/13 06:00:55;;;;;;;;;;;;;;;5.38;82.70;102394.00;7297045;19;19930;-68
2024/01/13 06:03:22;;;;;;;;;;;;;;;5.37;82.78;102392.31;7305797;19;19997;-69
2024/01/13 06:05:49;;;;;;;;;;;;;;;5.35;82.30;102383.69;7300489;19;19915;-67
2024/01/13 06:08:16;;;;;;;;;;;;;;;5.33;82.56;102374.28;7286069;19;20669;-69
2024/01/13 06:10:43;;;;;;;;;;;;;;;5.34;82.45;102381.16;7301642;19;20313;-69
2024/01/13 06:13:09;;;;;;;;;;;;;;;5.28;81.19;102381.50;7307024;19;20521;-69
2024/01/13 06:15:36;;;;;;;;;;;;;;;5.19;81.24;102388.03;7299268;19;20505;-69
2024/01/13 06:18:04;;;;;;;;;;;;;;;5.17;82.46;102384.69;7286658;19;20009;-68
2024/01/13 06:20:31;;;;;;;;;;;;;;;5.14;82.74;102371.78;7289269;19;20267;-68
2024/01/13 06:22:58;;;;;;;;;;;;;;;5.11;82.46;102364.13;7297508;19;19955;-68
2024/01/13 06:25:25;;;;;;;;;;;;;;;5.11;82.40;102362.34;7292087;19;19926;-69
2024/01/13 06:27:51;;;;;;;;;;;;;;;5.11;82.73;102341.50;7287798;19;20011;-68
2024/01/13 06:30:18;;;;;;;;;;;;;;;5.12;83.02;102340.56;7309769;19;19921;-69
2024/01/13 06:32:45;;;;;;;;;;;;;;;5.11;83.28;102340.63;7310378;19;22088;-69
2024/01/13 06:35:12;;;;;;;;;;;;;;;5.10;83.21;102337.19;7288477;19;19922;-70
2024/01/13 06:37:39;;;;;;;;;;;;;;;5.12;82.71;102351.00;7277143;19;19921;-69
2024/01/13 06:40:08;;;;;;;;;;;;;;;5.07;82.67;102337.34;7287228;19;20315;-68
2024/01/13 06:42:35;;;;;;;;;;;;;;;5.07;82.83;102344.34;7289488;19;19923;-68
2024/01/13 06:45:02;;;;;;;;;;;;;;;5.11;83.06;102335.44;7285246;19;19933;-69
2024/01/13 06:47:29;;;;;;;;;;;;;;;5.11;83.69;102320.63;7294388;19;19911;-69
2024/01/13 06:49:56;;;;;;;;;;;;;;;5.08;83.44;102312.09;7300797;19;21841;-68
2024/01/13 06:52:23;;;;;;;;;;;;;;;5.08;83.68;102306.88;7298877;19;20733;-68
2024/01/13 06:54:50;;;;;;;;;;;;;;;5.08;83.57;102297.28;7296288;19;20099;-69
2024/01/13 06:57:17;;;;;;;;;;;;;;;5.02;82.71;102300.25;7309220;19;19952;-68
2024/01/13 06:59:44;;;;;;;;;;;;;;;5.01;82.99;102315.97;7300848;19;19914;-68
2024/01/13 07:02:11;;;;;;;;;;;;;;;4.94;82.45;102319.81;7294190;19;19930;-70
2024/01/13 07:04:38;;;;;;;;;;;;;;;4.93;83.01;102312.88;7298395;19;20377;-68
2024/01/13 07:07:05;;;;;;;;;;;;;;;4.93;82.87;102312.88;7277822;19;19929;-69
2024/01/13 07:09:32;;;;;;;;;;;;;;;4.92;83.05;102322.50;7290843;19;20294;-69
2024/01/13 07:11:59;;;;;;;;;;;;;;;4.93;83.01;102315.50;7293022;19;19923;-68
2024/01/13 07:14:26;;;;;;;;;;;;;;;4.87;82.50;102305.41;7293379;19;19998;-68
2024/01/13 07:16:57;;;;;;;;;;;;;;;4.84;82.28;102298.56;7283549;19;20823;-69
2024/01/13 07:19:23;;;;;;;;;;;;;;;4.88;83.44;102301.84;7291321;19;20501;-70
2024/01/13 07:21:51;;;;;;;;;;;;;;;4.87;83.37;102310.63;7293680;19;21052;-68
2024/01/13 07:24:18;;;;;;;;;;;;;;;4.88;83.94;102310.53;7305148;19;19926;-69
2024/01/13 07:26:45;;;;;;;;;;;;;;;4.90;83.85;102324.34;7300200;19;19919;-69
2024/01/13 07:29:12;;;;;;;;;;;;;;;4.89;83.13;102321.81;7291178;19;20612;-69
2024/01/13 07:31:39;;;;;;;;;;;;;;;4.88;83.10;102310.53;7287790;19;20916;-69
2024/01/13 07:34:11;;;;;;;;;;;;;;;4.88;82.92;102309.69;7296659;19;19914;-69
2024/01/13 07:36:40;;;;;;;;;;;;;;;4.92;82.75;102319.91;7287592;19;19933;-69
2024/01/13 07:39:09;;;;;;;;;;;;;;;4.89;82.68;102316.59;7294551;19;20648;-70
2024/01/13 07:41:36;;;;;;;;;;;;;;;4.83;82.61;102306.47;7305716;19;20276;-69
2024/01/13 07:44:03;;;;;;;;;;;;;;;4.80;82.53;102304.88;7302019;19;20419;-68
2024/01/13 07:46:30;;;;;;;;;;;;;;;4.74;82.78;102305.19;7291523;19;19926;-69
2024/01/13 07:48:57;;;;;;;;;;;;;;;4.73;82.12;102299.13;7301144;19;19915;-69
2024/01/13 07:51:24;;;;;;;;;;;;;;;4.67;82.52;102299.44;7292983;19;20461;-69
2024/01/13 07:53:59;;;;;;;;;;;;;;;4.62;82.32;102295.41;7288061;19;19919;-70
2024/01/13 07:56:27;;;;;;;;;;;;;;;4.54;82.44;102287.97;7295001;19;19984;-69
2024/01/13 07:58:54;;;;;;;;;;;;;;;4.54;82.62;102298.38;7281148;19;19968;-68
2024/01/13 08:01:21;;;;;;;;;;;;;;;4.51;82.61;102297.72;7287165;19;19919;-68
2024/01/13 08:04:00;;;;;;;;;;;;;;;4.45;82.80;102298.84;7296743;19;19919;-68
2024/01/13 08:06:29;;;;;;;;;;;;;;;4.42;83.28;102288.56;7313224;19;19946;-68
2024/01/13 08:08:57;;;;;;;;;;;;;;;4.39;82.80;102295.72;7296091;19;19919;-69
2024/01/13 08:11:24;;;;;;;;;;;;;;;4.33;82.77;102286.44;7290249;19;19918;-68
2024/01/13 08:14:03;;;;;;;;;;;;;;;4.35;82.94;102300.25;7293993;19;20486;-69
2024/01/13 08:16:31;;;;;;;;;;;;;;;4.41;82.93;102296.47;7295763;19;21764;-69
2024/01/13 08:19:00;;;;;;;;;;;;;;;4.45;83.68;102301.47;7277801;19;20155;-69
2024/01/13 08:21:27;;;;;;;;;;;;;;;4.51;83.74;102285.53;7298193;19;20627;-69
2024/01/13 08:24:08;;;;;;;;;;;;;;;4.54;82.98;102289.72;7282017;19;19923;-67
2024/01/13 08:26:38;;;;;;;;;;;;;;;4.52;83.52;102271.56;7299835;19;19927;-68
2024/01/13 08:29:05;;;;;;;;;;;;;;;4.56;83.35;102270.50;7293266;19;20001;-68
2024/01/13 08:31:32;;;;;;;;;;;;;;;4.59;84.34;102278.16;7306299;19;22421;-72
2024/01/13 08:34:09;;;;;;;;;;;;;;;4.62;84.39;102274.56;7295789;19;19921;-69
2024/01/13 08:36:38;;;;;;;;;;;;;;;4.63;84.20;102271.00;7286100;19;20833;-69
2024/01/13 08:39:05;;;;;;;;;;;;;;;4.71;85.04;102251.47;7289194;19;20382;-69
2024/01/13 08:41:32;;;;;;;;;;;;;;;4.75;85.12;102249.53;7289361;19;20379;-69
2024/01/13 08:44:03;;;;;;;;;;;;;;;4.76;83.69;102256.44;7290582;19;19941;-68
2024/01/13 08:46:31;;;;;;;;;;;;;;;4.79;83.51;102251.06;7294326;19;19955;-68
2024/01/13 08:48:58;;;;;;;;;;;;;;;4.81;83.58;102258.78;7307022;19;20589;-69
2024/01/13 08:51:25;;;;;;;;;;;;;;;4.85;84.43;102263.78;7288611;19;19925;-69
2024/01/13 08:54:05;;;;;;;;;;;;;;;4.88;83.86;102253.16;7286343;19;20417;-70
2024/01/13 08:56:35;;;;;;;;;;;;;;;4.84;83.64;102246.44;7294908;19;19923;-68
2024/01/13 08:59:05;;;;;;;;;;;;;;;4.86;83.00;102248.97;7302471;19;20386;-69
2024/01/13 09:01:32;;;;;;;;;;;;;;;4.87;82.69;102240.22;7291484;19;19962;-69
2024/01/13 09:04:07;;;;;;;;;;;;;;;4.85;82.55;102229.03;7297542;19;19907;-68
2024/01/13 09:06:42;;;;;;;;;;;;;;;4.92;83.24;102231.25;7289377;19;19941;-68
2024/01/13 09:09:09;;;;;;;;;;;;;;;4.93;82.58;102234.66;7282508;19;19923;-69
2024/01/13 09:11:36;;;;;;;;;;;;;;;4.96;82.88;102237.97;7283568;19;19965;-68
2024/01/13 09:14:10;;;;;;;;;;;;;;;4.99;82.98;102235.19;7288669;19;20045;-68
2024/01/13 09:16:41;;;;;;;;;;;;;;;5.07;84.01;102229.59;7282889;19;19922;-70
2024/01/13 09:19:08;;;;;;;;;;;;;;;5.07;84.40;102227.81;7271657;19;20106;-69
2024/01/13 09:21:36;;;;;;;;;;;;;;;5.01;83.46;102219.47;7275286;19;20382;-69
2024/01/13 09:24:10;;;;;;;;;;;;;;;5.08;84.50;102221.66;7293562;19;19955;-68
2024/01/13 09:26:40;;;;;;;;;;;;;;;5.07;83.95;102229.59;7291937;19;19936;-68
2024/01/13 09:29:07;;;;;;;;;;;;;;;5.03;82.67;102228.88;7296074;19;20906;-69
2024/01/13 09:31:33;;;;;;;;;;;;;;;5.05;82.40;102223.59;7293851;19;20656;-68
2024/01/13 09:34:10;;;;;;;;;;;;;;;5.03;82.22;102217.59;7285958;19;21010;-71
2024/01/13 09:36:42;;;;;;;;;;;;;;;5.07;82.46;102204.34;7292334;19;20038;-69
2024/01/13 09:39:16;;;;;;;;;;;;;;;5.14;82.64;102215.25;7286435;19;19915;-68
2024/01/13 09:41:43;;;;;;;;;;;;;;;5.09;82.84;102222.50;7287881;19;20263;-69
2024/01/13 09:44:24;;;;;;;;;;;;;;;5.12;82.48;102211.91;7291260;19;19926;-70
2024/01/13 09:46:54;;;;;;;;;;;;;;;5.13;82.61;102209.19;7289670;19;20518;-68
2024/01/13 09:49:27;;;;;;;;;;;;;;;5.18;82.56;102218.56;7270086;19;20466;-70
2024/01/13 09:51:55;;;;;;;;;;;;;;;5.18;82.42;102209.78;7275181;19;19950;-68
2024/01/13 09:54:26;;;;;;;;;;;;;;;5.20;82.61;102209.72;7286666;19;19922;-67
2024/01/13 09:56:55;;;;;;;;;;;;;;;5.28;83.75;102207.56;7288891;19;19914;-69
2024/01/13 09:59:25;;;;;;;;;;;;;;;5.28;83.08;102204.94;7273780;19;19930;-68
2024/01/13 10:01:53;;;;;;;;;;;;;;;5.30;82.69;102204.84;7283989;19;19915;-69
2024/01/13 10:04:23;;;;;;;;;;;;;;;5.33;82.47;102215.97;7277637;19;19930;-68
2024/01/13 10:06:50;;;;;;;;;;;;;;;5.41;83.01;102211.16;7274912;19;20433;-68
2024/01/13 10:09:17;;;;;;;;;;;;;;;5.45;83.42;102215.25;7286198;19;19926;-68
2024/01/13 10:12:01;;;;;;;;;;;;;;;5.39;82.06;102204.31;7277751;19;20624;-67
2024/01/13 10:14:28;;;;;;;;;;;;;;;5.41;82.13;102202.47;7281260;19;19918;-69
2024/01/13 10:17:00;;;;;;;;;;;;;;;5.48;82.97;102203.81;7275392;19;19986;-69
2024/01/13 10:19:27;;;;;;;;;;;;;;;5.49;83.25;102201.13;7275577;19;19947;-69
2024/01/13 10:21:56;;;;;;;;;;;;;;;5.54;83.54;102204.31;7283725;19;19926;-67
2024/01/13 10:24:28;;;;;;;;;;;;;;;5.51;82.59;102201.88;7286716;19;20631;-69
2024/01/13 10:26:55;;;;;;;;;;;;;;;5.51;82.79;102195.81;7283666;19;19919;-69
2024/01/13 10:29:23;;;;;;;;;;;;;;;5.57;82.95;102198.09;7291673;19;20319;-67
2024/01/13 10:31:53;;;;;;;;;;;;;;;5.59;81.82;102193.59;7280733;19;20237;-67
2024/01/13 10:34:21;;;;;;;;;;;;;;;5.64;82.12;102185.53;7278795;19;19927;-68
2024/01/13 10:36:48;;;;;;;;;;;;;;;5.72;83.78;102186.78;7295732;19;19931;-69
2024/01/13 10:39:15;;;;;;;;;;;;;;;5.74;83.73;102203.16;7289164;19;20172;-68
2024/01/13 10:41:44;;;;;;;;;;;;;;;5.77;82.41;102196.94;7293923;19;19926;-68
2024/01/13 10:44:16;;;;;;;;;;;;;;;5.77;81.87;102199.56;7313110;19;19931;-68
2024/01/13 10:46:46;;;;;;;;;;;;;;;5.78;81.46;102182.97;7286138;19;22115;-67
2024/01/13 10:49:13;;;;;;;;;;;;;;;5.70;80.92;102179.94;7307824;19;20598;-68
2024/01/13 10:51:48;;;;;;;;;;;;;;;5.77;81.12;102168.22;7303740;19;20404;-68
2024/01/13 10:54:16;;;;;;;;;;;;;;;5.80;80.96;102161.03;7280935;19;20001;-71
2024/01/13 10:56:43;;;;;;;;;;;;;;;5.80;80.50;102158.44;7287897;19;19930;-67
2024/01/13 10:59:11;;;;;;;;;;;;;;;5.85;80.48;102148.56;7279653;19;19923;-68
2024/01/13 11:01:39;;;;;;;;;;;;;;;5.90;80.99;102151.78;7305181;19;22477;-68
2024/01/13 11:04:09;;;;;;;;;;;;;;;5.97;81.62;102145.28;7305429;19;19919;-69
2024/01/13 11:06:39;;;;;;;;;;;;;;;5.99;81.64;102145.19;7290155;19;19959;-69
2024/01/13 11:09:08;;;;;;;;;;;;;;;6.03;81.82;102148.47;7293683;19;19925;-68
2024/01/13 11:11:38;;;;;;;;;;;;;;;6.07;81.14;102142.97;7291979;19;19919;-68
2024/01/13 11:14:12;;;;;;;;;;;;;;;6.10;80.81;102137.53;7298617;19;20351;-68
2024/01/13 11:16:45;;;;;;;;;;;;;;;6.13;81.20;102147.81;7286968;19;20627;-69
2024/01/13 11:19:12;;;;;;;;;;;;;;;6.12;80.85;102138.28;7289102;19;19934;-68
2024/01/13 11:21:48;;;;;;;;;;;;;;;6.15;80.41;102135.50;7294173;19;19925;-68
2024/01/13 11:24:24;;;;;;;;;;;;;;;6.16;80.24;102131.09;7287881;19;20042;-67
2024/01/13 11:26:53;;;;;;;;;;;;;;;6.13;80.63;102133.91;7282090;19;19931;-68
2024/01/13 11:29:23;;;;;;;;;;;;;;;6.16;80.11;102134.56;7290164;19;19929;-70
2024/01/13 11:31:58;;;;;;;;;;;;;;;6.21;80.65;102122.06;7294807;19;19929;-69
2024/01/13 11:34:27;;;;;;;;;;;;;;;6.22;80.22;102109.84;7291767;19;19923;-67
2024/01/13 11:37:01;;;;;;;;;;;;;;;6.21;79.91;102102.94;7293111;19;20336;-70
2024/01/13 11:39:28;;;;;;;;;;;;;;;6.26;79.89;102103.50;7297969;19;21178;-67
2024/01/13 11:41:56;;;;;;;;;;;;;;;6.25;80.55;102101.81;7287456;19;19967;-68
2024/01/13 11:44:30;;;;;;;;;;;;;;;6.30;79.72;102095.38;7295504;19;21155;-69
2024/01/13 11:47:05;;;;;;;;;;;;;;;6.27;79.20;102100.78;7292806;19;20390;-68
2024/01/13 11:49:36;;;;;;;;;;;;;;;6.26;79.52;102099.09;7305488;19;19986;-68
2024/01/13 11:52:03;;;;;;;;;;;;;;;6.21;79.33;102087.25;7297547;19;20030;-68
2024/01/13 11:54:31;;;;;;;;;;;;;;;6.98;100.00;102086.75;7312487;19;20844;-69
2024/01/13 11:56:59;;;;;;;;;;;;;;;7.01;91.64;102086.59;7297432;19;19922;-69
2024/01/13 11:59:26;;;;;;;;;;;;;;;7.20;88.29;102087.06;7296119;19;19922;-68
2024/01/13 12:01:54;;;;;;;;;;;;;;;7.41;88.57;102092.69;7277224;19;20502;-69
2024/01/13 12:04:23;;;;;;;;;;;;;;;7.58;85.11;102077.50;7287602;19;19986;-70
2024/01/13 12:06:53;;;;;;;;;;;;;;;7.62;80.52;102067.66;7296040;19;19938;-68
2024/01/13 12:09:24;;;;;;;;;;;;;;;7.54;78.38;102060.31;7306253;19;21016;-67
2024/01/13 12:11:55;;;;;;;;;;;;;;;7.39;77.02;102066.59;7296761;19;20805;-69
2024/01/13 12:14:26;;;;;;;;;;;;;;;7.35;77.68;102059.03;7303175;19;19926;-69
2024/01/13 12:16:53;;;;;;;;;;;;;;;7.31;78.98;102054.00;7295799;19;20038;-69
2024/01/13 12:19:21;;;;;;;;;;;;;;;7.21;77.94;102050.28;7297384;19;19962;-68
2024/01/13 12:21:48;;;;;;;;;;;;;;;7.14;78.44;102049.03;7297825;19;20271;-70
2024/01/13 12:24:24;;;;;;;;;;;;;;;7.08;78.60;102044.19;7285219;19;19926;-69
2024/01/13 12:26:52;;;;;;;;;;;;;;;7.07;79.74;102041.69;7291905;19;19922;-68
2024/01/13 12:29:29;;;;;;;;;;;;;;;7.06;80.04;102046.06;7291041;19;19919;-68
2024/01/13 12:32:01;;;;;;;;;;;;;;;7.00;79.48;102040.41;7293797;19;20475;-68
2024/01/13 12:34:35;;;;;;;;;;;;;;;7.04;78.07;102026.19;7296934;19;19926;-69
2024/01/13 12:37:04;;;;;;;;;;;;;;;7.08;78.77;102010.19;7282066;19;20763;-69
2024/01/13 12:39:31;;;;;;;;;;;;;;;7.09;79.57;102016.25;7301912;19;20679;-67
2024/01/13 12:42:03;;;;;;;;;;;;;;;7.03;78.01;102025.34;7294112;19;19923;-68
2024/01/13 12:44:30;;;;;;;;;;;;;;;6.97;77.89;102027.50;7285921;19;19926;-68
2024/01/13 12:46:57;;;;;;;;;;;;;;;6.99;78.94;102018.66;7294889;19;20080;-69
2024/01/13 12:49:24;;;;;;;;;;;;;;;7.01;78.76;102014.13;7295465;19;20349;-69
2024/01/13 12:51:53;;;;;;;;;;;;;;;7.03;78.07;102019.28;7289168;19;20245;-69
2024/01/13 12:54:20;;;;;;;;;;;;;;;6.94;77.65;102020.72;7284137;19;21012;-71